Time;durP1;ratioP1;P1;durP2;ratioP2;P2;SDS_P1;SDS_P2;PMS_P1;PMS_P2;Temp;Humidity;BMP_temperature;BMP_pressure;BME280_temperature;BME280_humidity;BME280_pressure;Samples;Min_cycle;Max_cycle;Signal;HPM_P1;HPM_P2
2023/08/14 00:02:01;;;;;;;2.80;2.10;;;18.50;99.90;;;;;;6070598;23;20133;-66
2023/08/14 00:04:26;;;;;;;4.70;2.00;;;18.50;99.90;;;;;;6072341;23;20224;-67
2023/08/14 00:06:53;;;;;;;3.87;1.90;;;18.50;99.90;;;;;;6074161;23;20601;-66
2023/08/14 00:09:19;;;;;;;4.17;2.27;;;18.50;99.90;;;;;;6070003;23;20153;-66
2023/08/14 00:11:44;;;;;;;2.83;1.40;;;18.50;99.90;;;;;;6073794;23;20375;-67
2023/08/14 00:14:10;;;;;;;3.53;1.93;;;18.50;99.90;;;;;;6071840;23;20148;-65
2023/08/14 00:16:35;;;;;;;2.97;1.70;;;18.50;99.90;;;;;;6073382;23;20215;-66
2023/08/14 00:19:01;;;;;;;2.67;1.87;;;18.50;99.90;;;;;;6072671;23;20176;-66
2023/08/14 00:21:26;;;;;;;2.47;1.80;;;18.50;99.90;;;;;;6069835;23;20218;-66
2023/08/14 00:23:52;;;;;;;3.87;2.47;;;18.50;99.90;;;;;;6071735;23;20134;-66
2023/08/14 00:26:17;;;;;;;3.43;2.20;;;18.50;99.90;;;;;;6075463;23;20161;-66
2023/08/14 00:28:43;;;;;;;2.93;1.50;;;18.40;99.90;;;;;;6048243;23;20142;-67
2023/08/14 00:31:09;;;;;;;3.60;1.83;;;18.50;99.90;;;;;;6078287;23;20165;-65
2023/08/14 00:33:34;;;;;;;2.50;1.67;;;18.40;99.90;;;;;;6077892;23;20229;-67
2023/08/14 00:36:00;;;;;;;3.10;1.57;;;18.40;99.90;;;;;;6079228;23;20494;-67
2023/08/14 00:38:26;;;;;;;2.47;2.00;;;18.40;99.90;;;;;;6074656;23;20154;-66
2023/08/14 00:40:52;;;;;;;2.50;2.27;;;18.40;99.90;;;;;;6073568;23;20428;-67
2023/08/14 00:43:20;;;;;;;5.20;2.63;;;18.30;99.90;;;;;;6048888;23;20157;-67
2023/08/14 00:45:46;;;;;;;5.53;2.23;;;18.30;99.90;;;;;;6048160;23;20392;-67
2023/08/14 00:48:13;;;;;;;3.27;2.20;;;18.40;99.90;;;;;;6047481;23;20740;-66
2023/08/14 00:50:39;;;;;;;6.37;2.40;;;18.40;99.90;;;;;;6071215;23;20400;-68
2023/08/14 00:53:05;;;;;;;5.00;2.40;;;18.40;99.90;;;;;;6070063;23;20704;-67
2023/08/14 00:55:31;;;;;;;3.43;2.37;;;18.40;99.90;;;;;;6045297;23;20146;-67
2023/08/14 00:57:57;;;;;;;4.37;2.17;;;18.40;99.90;;;;;;6070486;23;20168;-66
2023/08/14 01:00:23;;;;;;;3.20;1.73;;;18.40;99.90;;;;;;6044576;23;20421;-67
2023/08/14 01:02:49;;;;;;;2.47;1.90;;;18.30;99.90;;;;;;6068650;23;20209;-66
2023/08/14 01:05:16;;;;;;;4.00;2.40;;;18.30;99.90;;;;;;6070521;23;20361;-68
2023/08/14 01:07:41;;;;;;;3.77;2.60;;;18.20;99.90;;;;;;6070209;23;20365;-66
2023/08/14 01:10:09;;;;;;;4.07;2.13;;;18.20;99.90;;;;;;6070221;23;20839;-65
2023/08/14 01:12:45;;;;;;;4.00;2.30;;;18.00;99.90;;;;;;6069082;23;20337;-66
2023/08/14 01:15:32;;;;;;;2.27;1.80;;;17.90;99.90;;;;;;6070009;23;20380;-67
2023/08/14 01:18:01;;;;;;;2.23;1.60;;;17.80;99.90;;;;;;6050394;23;20383;-67
2023/08/14 01:20:29;;;;;;;5.33;2.10;;;17.70;99.90;;;;;;6071481;23;20561;-67
2023/08/14 01:23:20;;;;;;;6.63;2.10;;;17.60;99.90;;;;;;6069771;23;20375;-66
2023/08/14 01:25:47;;;;;;;4.53;1.97;;;17.60;99.90;;;;;;6068924;23;20375;-66
2023/08/14 01:28:14;;;;;;;3.13;2.03;;;17.50;99.90;;;;;;6068712;23;20374;-66
2023/08/14 01:30:40;;;;;;;3.27;1.97;;;17.50;99.90;;;;;;6069813;23;20633;-64
2023/08/14 01:33:06;;;;;;;3.40;2.00;;;17.40;99.90;;;;;;6050742;23;20379;-68
2023/08/14 01:35:41;;;;;;;4.57;1.90;;;17.40;99.90;;;;;;6076145;23;20152;-67
2023/08/14 01:38:18;;;;;;;2.80;1.80;;;17.30;99.90;;;;;;6076980;23;20191;-66
2023/08/14 01:41:08;;;;;;;3.50;1.50;;;17.20;99.90;;;;;;6076411;23;20427;-68
2023/08/14 01:43:38;;;;;;;1.90;1.57;;;17.20;99.90;;;;;;6077163;23;20398;-67
2023/08/14 01:46:06;;;;;;;3.90;2.03;;;17.20;99.90;;;;;;6077648;23;20448;-68
2023/08/14 01:48:34;;;;;;;3.73;2.03;;;17.10;99.90;;;;;;6076989;23;20783;-67
2023/08/14 01:51:01;;;;;;;3.97;2.30;;;17.10;99.90;;;;;;6077426;23;20422;-65
2023/08/14 01:53:27;;;;;;;3.17;1.60;;;17.00;99.90;;;;;;6077042;23;20357;-66
2023/08/14 01:55:52;;;;;;;3.00;1.90;;;16.90;99.90;;;;;;6071940;23;20423;-66
2023/08/14 01:58:18;;;;;;;2.80;1.67;;;16.90;99.90;;;;;;6046739;23;20140;-67
2023/08/14 02:00:45;;;;;;;3.10;2.20;;;16.90;99.90;;;;;;6045918;23;20266;-67
2023/08/14 02:03:10;;;;;;;5.47;1.60;;;16.80;99.90;;;;;;6071464;23;20417;-67
2023/08/14 02:05:36;;;;;;;5.80;2.63;;;16.80;99.90;;;;;;6072272;23;20428;-67
2023/08/14 02:08:01;;;;;;;3.20;2.03;;;16.80;99.90;;;;;;6073106;23;20163;-67
2023/08/14 02:10:27;;;;;;;3.13;2.53;;;16.80;99.90;;;;;;6072796;23;20168;-67
2023/08/14 02:12:52;;;;;;;5.10;2.47;;;16.70;99.90;;;;;;6047806;23;20528;-67
2023/08/14 02:15:20;;;;;;;3.33;2.57;;;16.70;99.90;;;;;;6048030;23;20167;-66
2023/08/14 02:17:45;;;;;;;2.13;1.73;;;16.70;99.90;;;;;;6073283;23;20154;-67
2023/08/14 02:20:11;;;;;;;3.40;2.00;;;16.60;99.90;;;;;;6072621;23;20431;-67
2023/08/14 02:22:37;;;;;;;3.20;1.90;;;16.50;99.90;;;;;;6071119;23;20138;-66
2023/08/14 02:25:02;;;;;;;3.33;2.43;;;16.50;99.90;;;;;;6071440;23;20134;-66
2023/08/14 02:27:28;;;;;;;2.90;2.00;;;16.50;99.90;;;;;;6070534;23;20206;-67
2023/08/14 02:29:54;;;;;;;2.83;1.70;;;16.50;99.90;;;;;;6045887;23;20831;-67
2023/08/14 02:32:19;;;;;;;2.50;2.03;;;16.50;99.90;;;;;;6070009;23;20160;-67
2023/08/14 02:34:49;;;;;;;2.57;1.90;;;16.50;99.90;;;;;;6046451;23;20166;-67
2023/08/14 02:37:16;;;;;;;4.40;2.53;;;16.40;99.90;;;;;;6071897;23;20166;-66
2023/08/14 02:39:43;;;;;;;3.13;1.80;;;16.40;99.90;;;;;;6071108;23;20433;-66
2023/08/14 02:42:09;;;;;;;2.90;1.80;;;16.40;99.90;;;;;;6071051;23;20428;-66
2023/08/14 02:44:35;;;;;;;1.80;1.30;;;16.40;99.90;;;;;;6072111;23;20371;-66
2023/08/14 02:47:01;;;;;;;3.37;1.40;;;16.40;99.90;;;;;;6071701;23;20381;-67
2023/08/14 02:49:27;;;;;;;3.20;1.73;;;16.30;99.90;;;;;;6071030;23;20405;-67
2023/08/14 02:51:53;;;;;;;2.93;1.80;;;16.30;99.90;;;;;;6072202;23;20362;-67
2023/08/14 02:54:19;;;;;;;2.60;1.80;;;16.30;99.90;;;;;;6047474;23;20811;-66
2023/08/14 02:56:44;;;;;;;2.30;2.03;;;16.30;99.90;;;;;;6069766;23;20524;-66
2023/08/14 02:59:10;;;;;;;3.80;2.13;;;16.30;99.90;;;;;;6045809;23;20525;-66
2023/08/14 03:01:36;;;;;;;2.27;1.80;;;16.20;99.90;;;;;;6070937;23;20159;-66
2023/08/14 03:04:01;;;;;;;3.70;2.67;;;16.30;99.90;;;;;;6070858;23;20130;-66
2023/08/14 03:06:29;;;;;;;3.53;2.00;;;16.20;99.90;;;;;;6070740;23;20209;-66
2023/08/14 03:08:55;;;;;;;3.93;2.37;;;16.20;99.90;;;;;;6071362;23;20385;-66
2023/08/14 03:11:21;;;;;;;5.60;3.33;;;16.20;99.90;;;;;;6045447;23;20870;-68
2023/08/14 03:13:47;;;;;;;3.90;2.50;;;16.20;99.90;;;;;;6070221;23;20414;-66
2023/08/14 03:16:13;;;;;;;4.47;2.67;;;16.20;99.90;;;;;;6070818;23;20658;-66
2023/08/14 03:18:38;;;;;;;3.60;2.90;;;16.10;99.90;;;;;;6069017;23;20138;-66
2023/08/14 03:21:04;;;;;;;2.90;2.53;;;16.10;99.90;;;;;;6071025;23;20212;-67
2023/08/14 03:23:30;;;;;;;5.27;2.90;;;16.10;99.90;;;;;;6070962;23;20162;-67
2023/08/14 03:25:55;;;;;;;4.97;2.70;;;16.10;99.90;;;;;;6070488;23;20130;-66
2023/08/14 03:28:21;;;;;;;3.70;2.50;;;16.00;99.90;;;;;;6069270;23;20145;-66
2023/08/14 03:30:48;;;;;;;3.87;2.87;;;16.10;99.90;;;;;;6046025;23;20551;-66
2023/08/14 03:33:14;;;;;;;5.20;2.60;;;15.90;99.90;;;;;;6069845;23;20146;-67
2023/08/14 03:35:40;;;;;;;8.87;2.57;;;16.00;99.90;;;;;;6044783;23;20381;-67
2023/08/14 03:38:06;;;;;;;3.00;2.40;;;15.90;99.90;;;;;;6069716;23;20774;-67
2023/08/14 03:40:32;;;;;;;7.10;2.90;;;15.90;99.90;;;;;;6045297;23;20456;-66
2023/08/14 03:42:58;;;;;;;3.10;2.60;;;15.80;99.90;;;;;;6068837;23;20181;-66
2023/08/14 03:45:24;;;;;;;3.53;2.60;;;15.90;99.90;;;;;;6069255;23;20764;-65
2023/08/14 03:47:49;;;;;;;3.30;2.90;;;15.80;99.90;;;;;;6070660;23;20193;-66
2023/08/14 03:50:15;;;;;;;4.63;3.03;;;15.80;99.90;;;;;;6069494;23;20193;-65
2023/08/14 03:52:41;;;;;;;4.07;2.73;;;15.80;99.90;;;;;;6045818;23;20149;-68
2023/08/14 03:55:07;;;;;;;4.83;2.80;;;15.70;99.90;;;;;;6073274;23;20169;-67
2023/08/14 03:57:33;;;;;;;6.50;3.70;;;15.70;99.90;;;;;;6071526;23;20683;-67
2023/08/14 03:59:58;;;;;;;4.70;3.73;;;15.70;99.90;;;;;;6073361;23;20425;-67
2023/08/14 04:02:24;;;;;;;6.30;3.63;;;15.60;99.90;;;;;;6070935;23;20213;-67
2023/08/14 04:04:49;;;;;;;4.70;3.23;;;15.60;99.90;;;;;;6068622;23;20131;-67
2023/08/14 04:07:15;;;;;;;6.17;2.90;;;15.60;99.90;;;;;;6069052;23;20153;-66
2023/08/14 04:09:40;;;;;;;3.37;2.53;;;15.60;99.90;;;;;;6068762;23;20221;-68
2023/08/14 04:12:07;;;;;;;4.40;3.40;;;15.60;99.90;;;;;;6069026;23;20134;-67
2023/08/14 04:14:33;;;;;;;4.10;3.70;;;15.60;99.90;;;;;;6072676;23;20551;-67
2023/08/14 04:16:59;;;;;;;6.20;3.33;;;15.70;99.90;;;;;;6075466;23;20365;-67
2023/08/14 04:19:25;;;;;;;6.80;3.37;;;15.60;99.90;;;;;;6072169;23;20177;-66
2023/08/14 04:21:52;;;;;;;8.93;4.03;;;15.60;99.90;;;;;;6075688;23;20153;-70
2023/08/14 04:24:17;;;;;;;5.10;3.90;;;15.60;99.90;;;;;;6048604;23;20362;-67
2023/08/14 04:26:43;;;;;;;5.20;4.00;;;15.60;99.90;;;;;;6070942;23;20385;-66
2023/08/14 04:29:11;;;;;;;6.60;3.67;;;15.60;99.90;;;;;;6068699;23;20180;-66
2023/08/14 04:31:40;;;;;;;3.80;3.10;;;15.50;99.90;;;;;;6070889;23;20391;-67
2023/08/14 04:34:08;;;;;;;8.83;3.40;;;15.50;99.90;;;;;;6045493;23;20145;-67
2023/08/14 04:36:35;;;;;;;4.07;2.73;;;15.70;99.90;;;;;;6043956;23;20405;-68
2023/08/14 04:39:07;;;;;;;4.10;3.10;;;15.50;99.90;;;;;;6045214;23;20440;-65
2023/08/14 04:41:33;;;;;;;3.83;3.27;;;15.50;99.90;;;;;;6044728;23;20867;-67
2023/08/14 04:44:00;;;;;;;4.73;3.20;;;15.60;99.90;;;;;;6071146;23;20369;-67
2023/08/14 04:46:37;;;;;;;4.70;3.30;;;15.50;99.90;;;;;;6022857;23;20386;-67
2023/08/14 04:49:04;;;;;;;3.63;3.30;;;15.60;99.90;;;;;;6070255;23;20361;-68
2023/08/14 04:51:31;;;;;;;5.50;3.47;;;15.60;99.90;;;;;;6044811;23;20679;-68
2023/08/14 04:53:58;;;;;;;5.80;3.47;;;15.60;99.90;;;;;;6045167;23;20798;-67
2023/08/14 04:56:24;;;;;;;5.97;3.53;;;15.70;99.90;;;;;;6048817;23;20397;-69
2023/08/14 04:58:51;;;;;;;4.50;3.77;;;15.70;99.90;;;;;;6051579;23;20378;-66
2023/08/14 05:01:17;;;;;;;6.17;3.40;;;15.80;99.90;;;;;;6078341;23;20648;-67
2023/08/14 05:03:43;;;;;;;4.57;2.93;;;15.80;99.90;;;;;;6076797;23;20362;-69
2023/08/14 05:06:10;;;;;;;3.10;2.67;;;15.80;99.90;;;;;;6052015;23;20374;-69
2023/08/14 05:08:36;;;;;;;3.67;2.67;;;16.00;99.90;;;;;;6084607;23;20420;-68
2023/08/14 05:11:02;;;;;;;3.67;3.00;;;16.10;99.90;;;;;;6080980;23;20389;-68
2023/08/14 05:13:28;;;;;;;5.10;2.80;;;16.10;99.90;;;;;;6057976;23;20169;-70
2023/08/14 05:15:55;;;;;;;4.40;3.47;;;16.10;99.90;;;;;;6057323;23;20156;-68
2023/08/14 05:18:20;;;;;;;5.90;4.10;;;16.20;99.90;;;;;;6060018;23;20145;-70
2023/08/14 05:20:48;;;;;;;3.73;3.40;;;16.30;99.90;;;;;;6082230;23;20444;-68
2023/08/14 05:23:15;;;;;;;7.07;3.50;;;16.40;99.90;;;;;;6084164;23;20140;-70
2023/08/14 05:25:42;;;;;;;5.47;3.60;;;16.50;99.90;;;;;;6084762;23;20370;-69
2023/08/14 05:28:08;;;;;;;5.33;3.57;;;16.50;99.90;;;;;;6062168;23;20361;-70
2023/08/14 05:30:33;;;;;;;6.83;4.20;;;16.60;99.90;;;;;;6081644;23;20460;-68
2023/08/14 05:32:59;;;;;;;6.40;4.63;;;16.70;99.90;;;;;;6083684;23;20379;-70
2023/08/14 05:35:25;;;;;;;5.27;4.10;;;16.90;99.90;;;;;;6083170;23;20221;-68
2023/08/14 05:37:52;;;;;;;6.53;4.07;;;17.10;99.90;;;;;;6081987;23;20381;-71
2023/08/14 05:40:19;;;;;;;4.97;3.83;;;17.50;99.90;;;;;;6084432;23;20178;-71
2023/08/14 05:43:02;;;;;;;6.90;4.10;;;17.80;99.90;;;;;;6083674;23;20387;-69
2023/08/14 05:45:28;;;;;;;6.07;3.93;;;18.20;99.90;;;;;;6035437;23;20401;-70
2023/08/14 05:47:53;;;;;;;5.87;3.27;;;18.70;99.90;;;;;;6081584;23;20362;-68
2023/08/14 05:50:21;;;;;;;5.23;4.03;;;18.90;99.90;;;;;;6082742;23;20170;-72
2023/08/14 05:52:47;;;;;;;4.83;3.40;;;19.20;99.90;;;;;;6083652;23;20145;-69
2023/08/14 05:55:12;;;;;;;4.83;3.27;;;19.50;99.90;;;;;;6082901;23;20385;-69
2023/08/14 05:57:38;;;;;;;4.30;3.30;;;19.80;99.90;;;;;;6085733;23;20369;-69
2023/08/14 06:00:05;;;;;;;5.47;2.70;;;20.10;99.90;;;;;;6057974;23;20240;-68
2023/08/14 06:02:38;;;;;;;5.20;2.90;;;20.30;99.90;;;;;;6082588;23;20142;-72
2023/08/14 06:05:04;;;;;;;5.50;3.50;;;20.40;99.90;;;;;;6083080;23;20377;-68
2023/08/14 06:07:29;;;;;;;9.77;3.50;;;20.50;99.90;;;;;;6083804;23;20166;-71
2023/08/14 06:09:55;;;;;;;5.60;3.20;;;20.50;99.90;;;;;;6080317;23;20413;-69
2023/08/14 06:12:21;;;;;;;4.40;3.20;;;20.50;99.90;;;;;;6083799;23;20213;-70
2023/08/14 06:14:48;;;;;;;4.37;2.80;;;20.50;99.90;;;;;;6089692;23;20153;-67
2023/08/14 06:17:13;;;;;;;4.97;3.00;;;20.50;99.90;;;;;;6088855;23;20404;-70
2023/08/14 06:19:39;;;;;;;3.47;2.50;;;20.40;99.90;;;;;;6061490;23;20504;-69
2023/08/14 06:22:05;;;;;;;7.17;3.60;;;20.40;99.90;;;;;;6082620;23;20153;-70
2023/08/14 06:24:31;;;;;;;5.00;3.50;;;20.30;99.90;;;;;;6083183;23;20199;-67
2023/08/14 06:26:56;;;;;;;5.13;3.70;;;20.20;99.90;;;;;;6083028;23;20361;-69
2023/08/14 06:29:23;;;;;;;5.10;3.30;;;20.20;99.90;;;;;;6084087;23;20141;-69
2023/08/14 06:31:49;;;;;;;12.00;5.20;;;20.10;99.90;;;;;;6083516;23;20150;-71
2023/08/14 06:34:15;;;;;;;4.53;3.23;;;20.10;99.90;;;;;;6039091;23;20348;-71
2023/08/14 06:36:41;;;;;;;7.90;2.67;;;20.00;99.90;;;;;;6059313;23;20332;-71
2023/08/14 06:39:07;;;;;;;3.80;2.83;;;20.00;99.90;;;;;;6085848;23;20511;-69
2023/08/14 06:41:32;;;;;;;4.57;2.70;;;20.20;99.90;;;;;;6081766;23;20172;-69
2023/08/14 06:44:03;;;;;;;7.63;3.27;;;20.30;99.90;;;;;;6085385;23;20134;-73
2023/08/14 06:46:30;;;;;;;5.00;3.30;;;20.30;99.90;;;;;;6059892;23;20457;-71
2023/08/14 06:48:56;;;;;;;5.07;2.90;;;20.40;99.90;;;;;;6084243;23;20138;-71
2023/08/14 06:51:22;;;;;;;7.27;4.90;;;20.60;99.90;;;;;;6065261;23;20814;-71
2023/08/14 06:53:47;;;;;;;4.73;4.23;;;20.80;99.90;;;;;;6060456;23;20156;-69
2023/08/14 06:56:13;;;;;;;5.83;3.40;;;20.90;99.90;;;;;;6084409;23;20138;-71
2023/08/14 06:58:39;;;;;;;3.70;3.13;;;21.10;99.90;;;;;;6057801;23;20520;-68
2023/08/14 07:01:07;;;;;;;5.73;3.53;;;21.20;99.90;;;;;;6082620;23;20163;-71
2023/08/14 07:03:33;;;;;;;5.07;2.60;;;21.30;99.90;;;;;;6085220;23;20142;-72
2023/08/14 07:05:59;;;;;;;6.20;3.27;;;21.30;99.90;;;;;;6085797;23;20611;-72
2023/08/14 07:08:25;;;;;;;4.90;2.70;;;21.40;99.90;;;;;;6064160;23;20220;-68
2023/08/14 07:10:51;;;;;;;4.73;2.40;;;21.50;99.90;;;;;;6082210;23;20169;-69
2023/08/14 07:13:18;;;;;;;4.73;2.93;;;21.60;99.90;;;;;;6080305;23;20235;-71
2023/08/14 07:15:47;;;;;;;4.93;2.53;;;21.70;99.90;;;;;;6083658;23;20201;-72
2023/08/14 07:18:18;;;;;;;4.03;2.60;;;21.90;99.90;;;;;;6082072;23;20373;-71
2023/08/14 07:20:45;;;;;;;5.03;2.80;;;22.00;99.90;;;;;;6059100;23;20460;-68
2023/08/14 07:23:12;;;;;;;3.57;2.60;;;22.00;98.70;;;;;;6082382;23;20396;-69
2023/08/14 07:25:38;;;;;;;3.60;2.73;;;22.00;98.40;;;;;;6082627;23;20374;-70
2023/08/14 07:28:05;;;;;;;7.73;3.43;;;21.90;98.20;;;;;;6058665;23;20385;-69
2023/08/14 07:30:31;;;;;;;3.97;2.70;;;21.90;99.40;;;;;;6086248;23;20492;-70
2023/08/14 07:32:57;;;;;;;5.50;3.30;;;21.90;99.00;;;;;;6060118;23;20361;-69
2023/08/14 07:35:23;;;;;;;4.40;2.20;;;22.00;98.50;;;;;;6083514;23;20149;-71
2023/08/14 07:37:48;;;;;;;6.00;3.37;;;21.90;98.30;;;;;;6081004;23;20460;-71
2023/08/14 07:40:15;;;;;;;4.47;2.70;;;21.80;98.50;;;;;;6084104;23;20193;-70
2023/08/14 07:42:41;;;;;;;4.37;2.57;;;21.90;98.40;;;;;;6058418;23;20168;-71
2023/08/14 07:45:07;;;;;;;3.20;2.27;;;21.90;97.70;;;;;;6056346;23;20381;-68
2023/08/14 07:47:33;;;;;;;6.70;3.67;;;22.00;97.50;;;;;;6082662;23;20361;-71
2023/08/14 07:49:59;;;;;;;4.20;2.70;;;22.10;96.60;;;;;;6084673;23;20197;-70
2023/08/14 07:52:27;;;;;;;8.33;3.50;;;22.10;96.80;;;;;;6083949;23;20193;-69
2023/08/14 07:54:53;;;;;;;3.30;2.30;;;22.10;96.00;;;;;;6084203;23;20149;-72
2023/08/14 07:57:19;;;;;;;4.43;2.53;;;22.10;96.00;;;;;;6061962;23;20401;-72
2023/08/14 07:59:45;;;;;;;4.20;2.80;;;22.20;95.00;;;;;;6081218;23;20425;-70
2023/08/14 08:02:11;;;;;;;6.13;3.20;;;22.10;93.70;;;;;;6059034;23;20366;-72
2023/08/14 08:04:39;;;;;;;4.47;3.00;;;21.90;93.30;;;;;;6037876;23;20137;-72
2023/08/14 08:07:05;;;;;;;4.40;2.50;;;21.80;93.50;;;;;;6039321;23;20636;-72
2023/08/14 08:09:31;;;;;;;3.20;2.17;;;21.70;94.30;;;;;;6014636;23;20906;-70
2023/08/14 08:12:01;;;;;;;3.00;1.97;;;21.60;95.10;;;;;;6086362;23;20378;-74
2023/08/14 08:14:26;;;;;;;4.47;2.43;;;21.50;95.60;;;;;;6036735;23;20205;-70
2023/08/14 08:16:52;;;;;;;5.60;2.77;;;21.40;95.30;;;;;;6082172;23;20365;-69
2023/08/14 08:19:18;;;;;;;2.50;2.27;;;21.40;95.70;;;;;;6081572;23;20450;-73
2023/08/14 08:21:44;;;;;;;3.63;2.73;;;21.40;93.80;;;;;;6014499;23;20228;-69
2023/08/14 08:24:10;;;;;;;5.40;2.17;;;21.40;93.00;;;;;;6086257;23;20130;-74
2023/08/14 08:26:36;;;;;;;6.33;1.90;;;21.50;91.70;;;;;;6062591;23;20397;-68
2023/08/14 08:29:03;;;;;;;4.57;2.07;;;21.40;90.40;;;;;;6079345;23;20399;-69
2023/08/14 08:31:30;;;;;;;2.77;1.97;;;21.50;90.30;;;;;;6083241;23;20169;-72
2023/08/14 08:33:56;;;;;;;6.27;3.00;;;21.50;90.70;;;;;;6085972;23;20368;-70
2023/08/14 08:36:23;;;;;;;6.07;3.00;;;21.60;90.90;;;;;;6045093;23;20377;-72
2023/08/14 08:38:50;;;;;;;6.50;2.43;;;21.70;89.80;;;;;;6065457;23;20152;-73
2023/08/14 08:41:48;;;;;;;5.40;2.70;;;21.80;88.40;;;;;;6090976;23;20393;-72
2023/08/14 08:44:25;;;;;;;3.30;2.30;;;21.90;88.20;;;;;;5988111;23;20703;-71
2023/08/14 08:46:53;;;;;;;3.27;2.10;;;21.90;86.40;;;;;;6081355;23;20377;-70
2023/08/14 08:49:19;;;;;;;5.57;2.50;;;21.90;85.30;;;;;;6054659;23;20389;-71
2023/08/14 08:51:45;;;;;;;2.80;1.80;;;22.00;84.10;;;;;;6055929;23;20377;-71
2023/08/14 08:54:14;;;;;;;5.37;2.50;;;22.10;83.60;;;;;;6080979;23;20148;-70
2023/08/14 08:56:42;;;;;;;2.80;1.77;;;22.10;83.50;;;;;;6083220;23;20441;-72
2023/08/14 08:59:11;;;;;;;3.80;2.57;;;22.30;83.70;;;;;;6032265;23;20418;-69
2023/08/14 09:01:44;;;;;;;4.73;2.87;;;22.40;83.10;;;;;;6079561;23;20389;-70
2023/08/14 09:04:11;;;;;;;4.50;2.27;;;22.50;82.00;;;;;;6065384;23;20403;-70
2023/08/14 09:06:37;;;;;;;4.30;2.67;;;22.60;79.90;;;;;;6083538;23;20346;-70
2023/08/14 09:09:03;;;;;;;5.50;3.03;;;22.60;80.50;;;;;;6087112;23;20141;-69
2023/08/14 09:11:29;;;;;;;4.53;2.50;;;22.60;80.90;;;;;;6060721;23;20177;-70
2023/08/14 09:13:55;;;;;;;6.97;2.93;;;22.70;81.90;;;;;;6057922;23;20377;-70
2023/08/14 09:16:21;;;;;;;3.97;2.70;;;22.90;81.70;;;;;;6087925;23;20668;-72
2023/08/14 09:18:48;;;;;;;5.33;2.70;;;23.00;80.40;;;;;;6083208;23;20164;-70
2023/08/14 09:21:15;;;;;;;4.23;2.10;;;23.00;79.90;;;;;;6082045;23;20193;-72
2023/08/14 09:23:42;;;;;;;4.97;1.90;;;23.20;79.80;;;;;;6085051;23;20433;-70
2023/08/14 09:26:10;;;;;;;4.17;2.83;;;23.30;79.00;;;;;;6080968;23;20389;-71
2023/08/14 09:28:37;;;;;;;7.30;2.30;;;23.40;79.70;;;;;;6083979;23;20366;-69
2023/08/14 09:31:09;;;;;;;2.70;2.40;;;23.50;79.00;;;;;;6056933;23;20417;-69
2023/08/14 09:33:40;;;;;;;8.70;3.20;;;23.60;79.00;;;;;;6077966;23;20386;-69
2023/08/14 09:36:06;;;;;;;5.47;3.27;;;23.80;79.10;;;;;;6080856;23;20460;-70
2023/08/14 09:38:32;;;;;;;6.53;3.33;;;24.00;78.40;;;;;;6058355;23;20465;-69
2023/08/14 09:40:58;;;;;;;5.30;3.00;;;24.20;78.10;;;;;;6084372;23;20429;-73
2023/08/14 09:43:25;;;;;;;5.90;2.80;;;24.40;77.30;;;;;;6062232;23;20429;-72
2023/08/14 09:45:52;;;;;;;5.70;2.70;;;24.60;76.80;;;;;;6061766;23;20404;-71
2023/08/14 09:48:17;;;;;;;9.30;3.10;;;24.60;75.90;;;;;;6061368;23;20381;-70
2023/08/14 09:50:51;;;;;;;6.57;2.83;;;24.70;75.00;;;;;;6064872;23;20679;-72
2023/08/14 09:53:17;;;;;;;4.87;2.93;;;24.60;75.60;;;;;;6058976;23;20152;-72
2023/08/14 09:55:44;;;;;;;6.50;3.03;;;24.60;74.80;;;;;;6061947;23;20381;-73
2023/08/14 09:58:11;;;;;;;4.70;2.90;;;24.70;74.30;;;;;;6062181;23;20572;-72
2023/08/14 10:00:38;;;;;;;5.77;2.90;;;24.80;73.50;;;;;;6038549;23;20488;-71
2023/08/14 10:03:09;;;;;;;3.23;2.90;;;24.90;73.70;;;;;;6090804;23;20413;-74
2023/08/14 10:05:40;;;;;;;4.87;2.73;;;25.20;73.00;;;;;;6038969;23;20770;-72
2023/08/14 10:08:08;;;;;;;8.70;3.43;;;25.10;72.20;;;;;;6063847;23;20381;-70
2023/08/14 10:10:36;;;;;;;5.57;3.77;;;25.40;71.70;;;;;;6035315;23;20511;-72
2023/08/14 10:13:05;;;;;;;5.87;3.13;;;25.60;70.60;;;;;;6084053;23;20552;-73
2023/08/14 10:15:43;;;;;;;6.47;3.23;;;25.80;70.70;;;;;;6084419;23;20354;-69
2023/08/14 10:18:08;;;;;;;3.93;2.40;;;26.20;68.40;;;;;;6085668;23;20618;-71
2023/08/14 10:20:36;;;;;;;4.90;2.70;;;26.30;68.60;;;;;;6086002;23;20436;-72
2023/08/14 10:23:02;;;;;;;4.20;2.47;;;26.60;67.60;;;;;;6085192;23;20207;-74
2023/08/14 10:25:28;;;;;;;2.93;2.10;;;26.60;66.30;;;;;;6085346;23;20398;-71
2023/08/14 10:27:54;;;;;;;5.80;2.90;;;26.40;66.20;;;;;;6083860;23;20398;-74
2023/08/14 10:30:24;;;;;;;8.57;2.93;;;26.30;66.60;;;;;;6086692;23;20378;-72
2023/08/14 10:32:53;;;;;;;7.73;3.20;;;26.20;67.10;;;;;;6092699;23;20362;-74
2023/08/14 10:35:21;;;;;;;6.17;2.40;;;26.10;66.70;;;;;;6039357;23;20393;-74
2023/08/14 10:37:48;;;;;;;6.00;2.50;;;26.10;67.60;;;;;;6088324;23;20369;-73
2023/08/14 10:40:23;;;;;;;8.30;3.10;;;26.20;67.40;;;;;;6066363;23;20425;-71
2023/08/14 10:43:17;;;;;;;8.50;4.07;;;26.30;66.40;;;;;;6064937;23;20421;-72
2023/08/14 10:45:46;;;;;;;4.27;3.33;;;26.50;67.00;;;;;;6069168;23;20373;-74
2023/08/14 10:48:12;;;;;;;7.63;3.40;;;26.80;66.00;;;;;;5985908;23;20383;-74
2023/08/14 10:50:38;;;;;;;8.03;3.60;;;27.10;64.40;;;;;;6031923;23;20419;-71
2023/08/14 10:53:08;;;;;;;6.03;3.50;;;27.30;63.40;;;;;;6030567;23;20379;-74
2023/08/14 10:55:41;;;;;;;4.37;2.77;;;27.20;62.90;;;;;;6032324;23;20170;-74
2023/08/14 10:58:36;;;;;;;6.30;3.10;;;27.20;63.00;;;;;;6034649;23;20448;-74
2023/08/14 11:01:06;;;;;;;6.13;3.77;;;27.40;62.90;;;;;;6012239;23;20418;-73
2023/08/14 11:04:04;;;;;;;4.90;3.40;;;27.60;61.90;;;;;;5976261;24;20399;-71
2023/08/14 11:07:00;;;;;;;3.30;2.20;;;27.60;61.20;;;;;;6027533;23;20408;-76
2023/08/14 11:12:11;;;;;;;7.53;4.10;;;28.10;60.00;;;;;;6195386;23;20449;-78
2023/08/14 11:14:44;;;;;;;6.93;3.63;;;28.30;59.90;;;;;;6185154;23;20390;-77
2023/08/14 11:17:16;;;;;;;6.00;3.13;;;28.40;59.90;;;;;;6138752;23;20414;-76
2023/08/14 11:19:44;;;;;;;5.00;3.50;;;28.20;59.70;;;;;;6131450;23;20439;-77
2023/08/14 11:22:16;;;;;;;5.57;3.77;;;28.40;60.80;;;;;;6109275;23;20421;-78
2023/08/14 11:24:43;;;;;;;4.70;3.53;;;28.40;59.70;;;;;;6153295;23;20402;-72
2023/08/14 11:27:09;;;;;;;8.70;4.37;;;28.30;59.80;;;;;;6150971;23;20371;-71
2023/08/14 11:29:37;;;;;;;5.10;2.63;;;28.20;59.30;;;;;;6179075;23;20163;-74
2023/08/14 11:32:04;;;;;;;5.17;2.80;;;28.20;60.10;;;;;;6133760;23;20143;-75
2023/08/14 11:34:32;;;;;;;5.20;3.30;;;28.40;60.30;;;;;;6156943;23;20383;-74
2023/08/14 11:37:00;;;;;;;5.27;3.33;;;28.40;59.70;;;;;;6156020;23;20391;-73
2023/08/14 11:39:26;;;;;;;8.37;3.10;;;28.50;60.00;;;;;;6179374;23;20386;-74
2023/08/14 11:41:52;;;;;;;5.53;3.53;;;28.20;59.90;;;;;;6155226;23;20724;-74
2023/08/14 11:44:18;;;;;;;3.83;2.63;;;28.00;60.80;;;;;;6127532;23;20375;-74
2023/08/14 11:46:44;;;;;;;3.10;2.60;;;27.80;61.70;;;;;;6150291;23;20154;-74
2023/08/14 11:49:12;;;;;;;6.37;3.47;;;27.90;62.30;;;;;;6128183;23;20375;-75
2023/08/14 11:51:47;;;;;;;4.73;2.47;;;28.00;62.80;;;;;;6180207;23;20147;-74
2023/08/14 11:54:14;;;;;;;3.00;2.17;;;27.90;63.00;;;;;;6154895;23;20402;-73
2023/08/14 11:56:42;;;;;;;6.53;3.53;;;28.10;63.40;;;;;;6129620;23;20410;-74
2023/08/14 11:59:15;;;;;;;4.93;2.70;;;28.00;63.80;;;;;;6154417;23;20409;-74
2023/08/14 12:01:41;;;;;;;9.03;3.83;;;28.00;64.10;;;;;;6130838;23;20423;-74
2023/08/14 12:04:07;;;;;;;5.27;3.33;;;27.80;64.60;;;;;;6153694;23;20370;-74
2023/08/14 12:06:34;;;;;;;6.40;3.20;;;27.70;65.00;;;;;;6181375;23;20363;-74
2023/08/14 12:09:00;;;;;;;6.10;3.27;;;27.70;65.10;;;;;;6126591;23;20402;-71
2023/08/14 12:11:29;;;;;;;8.63;3.50;;;27.60;65.80;;;;;;6130487;23;20391;-74
2023/08/14 12:13:55;;;;;;;8.17;4.20;;;27.70;67.40;;;;;;6147910;23;20215;-74
2023/08/14 12:16:22;;;;;;;5.87;2.90;;;27.20;69.00;;;;;;6126164;23;20368;-73
2023/08/14 12:18:50;;;;;;;8.20;3.43;;;26.90;70.60;;;;;;6123697;23;20439;-73
2023/08/14 12:21:24;;;;;;;10.30;3.73;;;26.80;71.00;;;;;;6144915;23;20445;-73
2023/08/14 12:23:54;;;;;;;6.97;2.97;;;26.80;71.60;;;;;;6146442;23;20391;-73
2023/08/14 12:26:21;;;;;;;4.07;2.83;;;27.00;71.20;;;;;;6143868;23;20396;-74
2023/08/14 12:28:46;;;;;;;5.97;3.10;;;27.00;70.00;;;;;;6145719;23;20840;-71
2023/08/14 12:31:14;;;;;;;6.20;3.07;;;27.00;69.80;;;;;;6145385;23;20386;-73
2023/08/14 12:33:43;;;;;;;6.73;3.10;;;26.80;70.90;;;;;;6143353;23;20147;-71
2023/08/14 12:36:12;;;;;;;6.47;2.70;;;26.70;71.90;;;;;;6144241;23;20451;-74
2023/08/14 12:38:38;;;;;;;8.83;3.07;;;26.60;72.50;;;;;;6145930;23;20378;-71
2023/08/14 12:41:04;;;;;;;4.00;2.67;;;26.80;73.10;;;;;;6142230;23;20423;-73
2023/08/14 12:43:30;;;;;;;4.73;2.80;;;26.70;73.60;;;;;;6119346;23;20143;-71
2023/08/14 12:45:56;;;;;;;6.13;3.00;;;27.00;73.80;;;;;;6141406;23;20747;-73
2023/08/14 12:48:22;;;;;;;4.73;3.07;;;27.20;73.70;;;;;;6141872;23;20367;-73
2023/08/14 12:50:48;;;;;;;6.20;3.07;;;27.40;73.50;;;;;;6143591;23;20168;-72
2023/08/14 12:53:18;;;;;;;4.80;3.57;;;27.60;73.30;;;;;;6125141;23;20127;-72